Litchfield, MN

3:22 AM CST on November 13, 2019 (GMT -0600)
Litchfield Municipal

Weather History for KLJF - October, 2019

Change the Weather History Date:

Wednesday, October 23, 2019

  Actual Average Record
Temperature  
Mean Temperature 39 °F -  
Max Temperature 48 °F 57 °F 80 °F (1992)
Min Temperature 30 °F 34 °F 19 °F (1981)
Degree Days  
Heating Degree Days 26    
Moisture  
Dew Point 34 °F    
Average Humidity 83    
Maximum Humidity 100    
Minimum Humidity 66    
Precipitation  
Precipitation 0.00 in - - ()
Sea Level Pressure  
Sea Level Pressure 29.92 in    
Wind  
Wind Speed 7 mph ()    
Max Wind Speed 15 mph    
Max Gust Speed 21 mph    
Visibility 10.0 miles    
Events      
Averages and records for this station are not official NWS values.
T = Trace of Precipitation, MM = Missing Value Source: Averaged Metar Reports

Daily Weather History Graph

Daily Weather History Graph

Search for Another Location

Airport or City:

Astronomy

Oct. 23, 2019 Rise Set
Actual Time 7:44 AM CDT 6:19 PM CDT
Civil Twilight 7:14 AM CDT 6:49 PM CDT
Nautical Twilight 6:39 AM CDT 7:24 PM CDT
Astronomical Twilight 6:05 AM CDT 7:58 PM CDT
Moon 1:43 AM CDT (10/23) 4:28 PM CDT (10/23)
Length of Visible Light 11h 35m
Length of Day
10h 35m
Waning Crescent, 26% of the Moon is Illuminated
Oct 23
Waning Crescent
Oct 27
New
Nov 4
First Quarter
Nov 12
Full
Nov 19
Last Quarter

Hourly Weather History & Observations

Time (CDT) Temp. Windchill Dew Point Humidity Pressure Visibility Wind Dir Wind Speed Gust Speed Precip Events Conditions
12:16 AM 37.4 °F 32.1 °F 33.8 °F 87% 29.73 in 10.0 mi West 6.9 mph - N/A   Clear
12:36 AM 37.4 °F 32.1 °F 33.8 °F 87% 29.73 in 10.0 mi West 6.9 mph - N/A   Clear
12:55 AM 37.4 °F 32.1 °F 33.8 °F 87% 29.73 in 10.0 mi West 6.9 mph - N/A   Clear
12:56 AM 37.4 °F 32.1 °F 33.8 °F 87% 29.73 in 10.0 mi West 6.9 mph - N/A   Clear
1:15 AM 37.4 °F 32.8 °F 33.8 °F 87% 29.73 in 10.0 mi West 5.8 mph - N/A   Clear
1:19 AM 37.4 °F 32.8 °F 33.8 °F 87% 29.73 in 10.0 mi West 5.8 mph - N/A   Clear
1:37 AM 35.6 °F 29.9 °F 33.8 °F 93% 29.73 in 10.0 mi West 6.9 mph - N/A   Clear
1:56 AM 35.6 °F 30.7 °F 33.8 °F 93% 29.74 in 10.0 mi West 5.8 mph - N/A   Clear
2:15 AM 35.6 °F 30.7 °F 33.8 °F 93% 29.74 in 10.0 mi West 5.8 mph - N/A   Clear
2:35 AM 35.6 °F 29.9 °F 33.8 °F 93% 29.75 in 10.0 mi West 6.9 mph - N/A   Clear
2:36 AM 35.6 °F 30.7 °F 33.8 °F 93% 29.75 in 10.0 mi West 5.8 mph - N/A   Clear
3:16 AM 35.6 °F 31.7 °F 33.8 °F 93% 29.76 in 10.0 mi West 4.6 mph - N/A   Clear
3:36 AM 35.6 °F 30.7 °F 33.8 °F 93% 29.76 in 10.0 mi West 5.8 mph - N/A   Clear
3:55 AM 33.8 °F 30.8 °F 33.8 °F 100% 29.76 in 10.0 mi West 3.5 mph - N/A   Clear
3:56 AM 33.8 °F 30.8 °F 33.8 °F 100% 29.76 in 10.0 mi West 3.5 mph - N/A   Clear
4:15 AM 33.8 °F 29.6 °F 33.8 °F 100% 29.77 in 10.0 mi West 4.6 mph - N/A   Clear
4:38 AM 33.8 °F 28.6 °F 33.8 °F 100% 29.78 in 10.0 mi West 5.8 mph - N/A   Clear
4:55 AM 33.8 °F 27.7 °F 33.8 °F 100% 29.78 in 10.0 mi West 6.9 mph - N/A   Clear
5:15 AM 33.8 °F 28.6 °F 33.8 °F 100% 29.79 in 10.0 mi West 5.8 mph - N/A   Clear
5:16 AM 33.8 °F 28.6 °F 33.8 °F 100% 29.79 in 10.0 mi West 5.8 mph - N/A   Clear
5:36 AM 33.8 °F 28.6 °F 33.8 °F 100% 29.79 in 10.0 mi West 5.8 mph - N/A   Clear
5:58 AM 33.8 °F 28.6 °F 33.8 °F 100% 29.80 in 10.0 mi West 5.8 mph - N/A   Clear
6:16 AM 33.8 °F 29.6 °F 33.8 °F 100% 29.81 in 10.0 mi West 4.6 mph - N/A   Clear
6:36 AM 33.8 °F 28.6 °F 33.8 °F 100% 29.81 in 10.0 mi West 5.8 mph - N/A   Clear
6:55 AM 33.8 °F 29.6 °F 33.8 °F 100% 29.81 in 10.0 mi West 4.6 mph - N/A   Clear
7:15 AM 32.0 °F 28.7 °F 32.0 °F 100% 29.82 in 10.0 mi WSW 3.5 mph - N/A   Clear
7:20 AM 32.0 °F 28.7 °F 32.0 °F 100% 29.82 in 10.0 mi WSW 3.5 mph - N/A   Clear
7:37 AM 30.2 °F 26.7 °F 30.2 °F 100% 29.82 in 10.0 mi WSW 3.5 mph - N/A   Clear
7:56 AM 30.2 °F 26.7 °F 30.2 °F 100% 29.83 in 10.0 mi WSW 3.5 mph - N/A   Clear
8:15 AM 32.0 °F 27.5 °F 32.0 °F 100% 29.84 in 10.0 mi WSW 4.6 mph - N/A   Clear
8:16 AM 32.0 °F 28.7 °F 32.0 °F 100% 29.84 in 10.0 mi WSW 3.5 mph - N/A   Clear
8:35 AM 33.8 °F 30.8 °F 33.8 °F 100% 29.84 in 10.0 mi WSW 3.5 mph - N/A   Clear
8:36 AM 33.8 °F 30.8 °F 33.8 °F 100% 29.84 in 10.0 mi WSW 3.5 mph - N/A   Clear
8:58 AM 35.6 °F 30.7 °F 33.8 °F 93% 29.85 in 10.0 mi West 5.8 mph - N/A   Clear
9:36 AM 37.4 °F 32.8 °F 33.8 °F 87% 29.86 in 10.0 mi WNW 5.8 mph - N/A   Clear
9:55 AM 37.4 °F 32.8 °F 33.8 °F 87% 29.87 in 10.0 mi WNW 5.8 mph - N/A   Clear
9:56 AM 37.4 °F 32.1 °F 33.8 °F 87% 29.87 in 10.0 mi WNW 6.9 mph - N/A   Clear
10:15 AM 37.4 °F 30.8 °F 33.8 °F 87% 29.88 in 10.0 mi WNW 9.2 mph - N/A   Clear
10:20 AM 39.2 °F 34.2 °F 33.8 °F 81% 29.88 in 10.0 mi West 6.9 mph - N/A   Clear
10:38 AM 39.2 °F 34.2 °F 33.8 °F 81% 29.88 in 10.0 mi WNW 6.9 mph - N/A   Clear
10:56 AM 41.0 °F 34.3 °F 35.6 °F 81% 29.88 in 10.0 mi WNW 11.5 mph - N/A   Clear
11:15 AM 39.2 °F 34.2 °F 35.6 °F 87% 29.89 in 10.0 mi NW 6.9 mph - N/A   Clear
11:16 AM 39.2 °F 35.0 °F 35.6 °F 87% 29.89 in 10.0 mi NW 5.8 mph - N/A   Clear
11:35 AM 41.0 °F 37.1 °F 33.8 °F 76% 29.90 in 10.0 mi WNW 5.8 mph - N/A   Clear
11:36 AM 41.0 °F 36.4 °F 33.8 °F 76% 29.90 in 10.0 mi WNW 6.9 mph - N/A   Clear
11:58 AM 42.8 °F 37.5 °F 33.8 °F 70% 29.90 in 10.0 mi WNW 9.2 mph - N/A   Clear
12:16 PM 42.8 °F 37.5 °F 35.6 °F 76% 29.90 in 10.0 mi WNW 9.2 mph - N/A   Clear
12:36 PM 44.6 °F 41.4 °F 35.6 °F 71% 29.90 in 10.0 mi WNW 5.8 mph - N/A   Clear
12:55 PM 46.4 °F 41.9 °F 35.6 °F 66% 29.90 in 10.0 mi NW 9.2 mph - N/A   Scattered Clouds
12:56 PM 46.4 °F 41.9 °F 35.6 °F 66% 29.90 in 10.0 mi NW 9.2 mph - N/A   Scattered Clouds
1:15 PM 46.4 °F 41.1 °F 35.6 °F 66% 29.90 in 10.0 mi WNW 11.5 mph - N/A   Clear
1:37 PM 46.4 °F 42.9 °F 35.6 °F 66% 29.90 in 10.0 mi WNW 6.9 mph - N/A   Clear
1:55 PM 46.4 °F 41.9 °F 35.6 °F 66% 29.90 in 10.0 mi WNW 9.2 mph - N/A   Clear
2:15 PM 46.4 °F 42.4 °F 35.6 °F 66% 29.90 in 10.0 mi NNW 8.1 mph - N/A   Clear
2:16 PM 46.4 °F 41.9 °F 35.6 °F 66% 29.90 in 10.0 mi NW 9.2 mph - N/A   Clear
2:35 PM 46.4 °F 41.1 °F 35.6 °F 66% 29.90 in 10.0 mi NNW 11.5 mph - N/A   Clear
2:36 PM 48.2 °F - 37.4 °F 66% 29.91 in 10.0 mi NW 11.5 mph - N/A   Clear
2:58 PM 46.4 °F 41.9 °F 35.6 °F 66% 29.92 in 10.0 mi NW 9.2 mph - N/A   Clear
3:16 PM 48.2 °F - 37.4 °F 66% 29.93 in 10.0 mi NW 8.1 mph 17.3 mph N/A   Scattered Clouds
3:35 PM 46.4 °F 40.7 °F 35.6 °F 66% 29.93 in 10.0 mi NNW 12.7 mph - N/A   Scattered Clouds
3:36 PM 46.4 °F 40.7 °F 35.6 °F 66% 29.93 in 10.0 mi NW 12.7 mph - N/A   Scattered Clouds
3:55 PM 44.6 °F 38.4 °F 35.6 °F 71% 29.95 in 10.0 mi NNW 12.7 mph 18.4 mph N/A   Scattered Clouds
3:56 PM 44.6 °F 38.4 °F 35.6 °F 71% 29.95 in 10.0 mi NNW 12.7 mph - N/A   Scattered Clouds
4:15 PM 44.6 °F 38.4 °F 35.6 °F 71% 29.96 in 10.0 mi NNW 12.7 mph 18.4 mph N/A   Scattered Clouds
4:37 PM 44.6 °F 39.2 °F 35.6 °F 71% 29.97 in 10.0 mi NW 10.4 mph - N/A   Mostly Cloudy
4:55 PM 44.6 °F 38.8 °F 35.6 °F 71% 29.98 in 10.0 mi NNW 11.5 mph - N/A   Overcast
5:15 PM 44.6 °F 39.2 °F 35.6 °F 71% 29.99 in 10.0 mi NW 10.4 mph - N/A   Overcast
5:16 PM 44.6 °F 38.8 °F 35.6 °F 71% 29.99 in 10.0 mi NW 11.5 mph - N/A   Overcast
5:35 PM 42.8 °F 36.2 °F 35.6 °F 76% 30.01 in 10.0 mi NNW 12.7 mph - N/A   Overcast
5:36 PM 42.8 °F 36.2 °F 33.8 °F 70% 30.01 in 10.0 mi NNW 12.7 mph - N/A   Overcast
5:58 PM 42.8 °F 36.6 °F 35.6 °F 76% 30.02 in 10.0 mi NNW 11.5 mph - N/A   Overcast
6:17 PM 42.8 °F 37.5 °F 35.6 °F 76% 30.03 in 10.0 mi NW 9.2 mph - N/A   Overcast
6:36 PM 41.0 °F 33.9 °F 33.8 °F 76% 30.04 in 10.0 mi NNW 12.7 mph 19.6 mph N/A   Overcast
6:55 PM 41.0 °F 34.3 °F 35.6 °F 81% 30.06 in 10.0 mi NW 11.5 mph - N/A   Overcast
6:56 PM 41.0 °F 34.7 °F 35.6 °F 81% 30.06 in 10.0 mi NW 10.4 mph - N/A   Overcast
7:15 PM 41.0 °F 33.5 °F 33.8 °F 76% 30.07 in 10.0 mi NW 13.8 mph 20.7 mph N/A   Overcast
7:19 PM 41.0 °F 33.1 °F 33.8 °F 76% 30.07 in 10.0 mi NNW 15.0 mph 20.7 mph N/A   Overcast
7:37 PM 39.2 °F 32.5 °F 33.8 °F 81% 30.08 in 10.0 mi NNW 10.4 mph - N/A   Overcast
7:55 PM 39.2 °F 33.0 °F 35.6 °F 87% 30.09 in 10.0 mi NNW 9.2 mph - N/A   Overcast
8:15 PM 39.2 °F 32.0 °F 33.8 °F 81% 30.10 in 10.0 mi NW 11.5 mph - N/A   Overcast
8:16 PM 39.2 °F 32.0 °F 33.8 °F 81% 30.10 in 10.0 mi NW 11.5 mph - N/A   Overcast
8:35 PM 39.2 °F 33.6 °F 33.8 °F 81% 30.11 in 10.0 mi NW 8.1 mph - N/A   Overcast
8:36 PM 39.2 °F 33.6 °F 33.8 °F 81% 30.11 in 10.0 mi NW 8.1 mph - N/A   Overcast
8:58 PM 39.2 °F 32.5 °F 33.8 °F 81% 30.11 in 10.0 mi NW 10.4 mph 16.1 mph N/A   Overcast
9:16 PM 39.2 °F 32.0 °F 33.8 °F 81% 30.12 in 10.0 mi NW 11.5 mph 17.3 mph N/A   Overcast
9:36 PM 39.2 °F 33.0 °F 33.8 °F 81% 30.13 in 10.0 mi NW 9.2 mph - N/A   Overcast
9:55 PM 39.2 °F 33.6 °F 33.8 °F 81% 30.13 in 10.0 mi WNW 8.1 mph 17.3 mph N/A   Overcast
9:56 PM 39.2 °F 33.6 °F 33.8 °F 81% 30.14 in 10.0 mi WNW 8.1 mph 17.3 mph N/A   Overcast
10:15 PM 39.2 °F 33.6 °F 33.8 °F 81% 30.14 in 10.0 mi NW 8.1 mph 16.1 mph N/A   Overcast
10:19 PM 39.2 °F 33.6 °F 33.8 °F 81% 30.15 in 10.0 mi NW 8.1 mph - N/A   Overcast
10:37 PM 39.2 °F 35.0 °F 33.8 °F 81% 30.15 in 10.0 mi NW 5.8 mph - N/A   Overcast
10:56 PM 39.2 °F 32.5 °F 33.8 °F 81% 30.16 in 10.0 mi NW 10.4 mph 16.1 mph N/A   Overcast
11:15 PM 39.2 °F 34.2 °F 33.8 °F 81% 30.17 in 10.0 mi WNW 6.9 mph - N/A   Overcast
11:16 PM 39.2 °F 33.6 °F 33.8 °F 81% 30.17 in 10.0 mi WNW 8.1 mph - N/A   Overcast
11:35 PM 39.2 °F 33.0 °F 33.8 °F 81% 30.17 in 10.0 mi WNW 9.2 mph - N/A   Overcast
11:36 PM 39.2 °F 33.6 °F 33.8 °F 81% 30.17 in 10.0 mi WNW 8.1 mph - N/A   Overcast
11:58 PM 39.2 °F 32.0 °F 35.6 °F 87% 30.17 in 10.0 mi WNW 11.5 mph 17.3 mph N/A   Overcast